sensor_id;sensor_type;location;lat;lon;timestamp;pressure;altitude;pressure_sealevel;temperature;humidity
44734;BME280;30462;52.446;-1.930;2023-02-19T00:00:18;100765.6914;;;;
44734;BME280;30462;52.446;-1.930;2023-02-19T00:01:19;100771.9883;;;;
44734;BME280;30462;52.446;-1.930;2023-02-19T00:02:17;100767.1836;;;;
44734;BME280;30462;52.446;-1.930;2023-02-19T00:03:18;100775.3398;;;;
44734;BME280;30462;52.446;-1.930;2023-02-19T00:04:19;100773.2148;;;;
44734;BME280;30462;52.446;-1.930;2023-02-19T00:05:18;100778.1641;;;;
44734;BME280;30462;52.446;-1.930;2023-02-19T00:06:18;100776.5703;;;;
44734;BME280;30462;52.446;-1.930;2023-02-19T00:07:18;100775.8828;;;;
44734;BME280;30462;52.446;-1.930;2023-02-19T00:08:18;100783.3281;;;;
44734;BME280;30462;52.446;-1.930;2023-02-19T00:09:18;100783.7305;;;;
44734;BME280;30462;52.446;-1.930;2023-02-19T00:10:18;100784.3828;;;;
44734;BME280;30462;52.446;-1.930;2023-02-19T00:11:19;100785.9375;;;;
44734;BME280;30462;52.446;-1.930;2023-02-19T00:12:18;100783.9297;;;;
44734;BME280;30462;52.446;-1.930;2023-02-19T00:13:18;100788.0078;;;;
44734;BME280;30462;52.446;-1.930;2023-02-19T00:14:18;100788.4648;;;;
44734;BME280;30462;52.446;-1.930;2023-02-19T00:15:18;100784.2852;;;;
44734;BME280;30462;52.446;-1.930;2023-02-19T00:16:19;100787.7969;;;;
44734;BME280;30462;52.446;-1.930;2023-02-19T00:17:17;100794.4805;;;;
44734;BME280;30462;52.446;-1.930;2023-02-19T00:18:18;100792.875;;;;
44734;BME280;30462;52.446;-1.930;2023-02-19T00:19:19;100794.4453;;;;
44734;BME280;30462;52.446;-1.930;2023-02-19T00:20:18;100795.3867;;;;
44734;BME280;30462;52.446;-1.930;2023-02-19T00:21:18;100799.7266;;;;
44734;BME280;30462;52.446;-1.930;2023-02-19T00:22:18;100798.7969;;;;
44734;BME280;30462;52.446;-1.930;2023-02-19T00:23:18;100803.0391;;;;
44734;BME280;30462;52.446;-1.930;2023-02-19T00:24:18;100805.4141;;;;
44734;BME280;30462;52.446;-1.930;2023-02-19T00:25:18;100813.0078;;;;
44734;BME280;30462;52.446;-1.930;2023-02-19T00:26:18;100812.793;;;;
44734;BME280;30462;52.446;-1.930;2023-02-19T00:27:18;100809.6992;;;;
44734;BME280;30462;52.446;-1.930;2023-02-19T00:28:18;100811.1875;;;;
44734;BME280;30462;52.446;-1.930;2023-02-19T00:29:19;100813.1406;;;;
44734;BME280;30462;52.446;-1.930;2023-02-19T00:30:18;100813.5156;;;;
44734;BME280;30462;52.446;-1.930;2023-02-19T00:31:19;100804.9023;;;;
44734;BME280;30462;52.446;-1.930;2023-02-19T00:32:18;100808.9922;;;;
44734;BME280;30462;52.446;-1.930;2023-02-19T00:33:18;100810.5234;;;;
44734;BME280;30462;52.446;-1.930;2023-02-19T00:34:18;100818.9727;;;;
44734;BME280;30462;52.446;-1.930;2023-02-19T00:35:18;100817.7109;;;;
44734;BME280;30462;52.446;-1.930;2023-02-19T00:36:18;100828.207;;;;
44734;BME280;30462;52.446;-1.930;2023-02-19T00:37:18;100830.8281;;;;
44734;BME280;30462;52.446;-1.930;2023-02-19T00:38:18;100824.1563;;;;
44734;BME280;30462;52.446;-1.930;2023-02-19T00:39:18;100833.1563;;;;
44734;BME280;30462;52.446;-1.930;2023-02-19T00:40:18;100830.4492;;;;
44734;BME280;30462;52.446;-1.930;2023-02-19T00:41:19;100833.2305;;;;
44734;BME280;30462;52.446;-1.930;2023-02-19T00:42:18;100833.8242;;;;
44734;BME280;30462;52.446;-1.930;2023-02-19T00:43:18;100837.9531;;;;
44734;BME280;30462;52.446;-1.930;2023-02-19T00:44:18;100839.9453;;;;
44734;BME280;30462;52.446;-1.930;2023-02-19T00:45:18;100838.0469;;;;
44734;BME280;30462;52.446;-1.930;2023-02-19T00:46:18;100839.082;;;;
44734;BME280;30462;52.446;-1.930;2023-02-19T00:47:18;100842.4766;;;;
44734;BME280;30462;52.446;-1.930;2023-02-19T00:48:17;100839.3555;;;;
44734;BME280;30462;52.446;-1.930;2023-02-19T00:49:18;100839.8633;;;;
44734;BME280;30462;52.446;-1.930;2023-02-19T00:50:18;100839.7148;;;;
44734;BME280;30462;52.446;-1.930;2023-02-19T00:51:18;100838.7852;;;;
44734;BME280;30462;52.446;-1.930;2023-02-19T00:52:18;100844.1211;;;;
44734;BME280;30462;52.446;-1.930;2023-02-19T00:53:18;100841.0078;;;;
44734;BME280;30462;52.446;-1.930;2023-02-19T00:54:18;100843.3008;;;;
44734;BME280;30462;52.446;-1.930;2023-02-19T00:55:18;100841.4492;;;;
44734;BME280;30462;52.446;-1.930;2023-02-19T00:56:18;100847;;;;
44734;BME280;30462;52.446;-1.930;2023-02-19T00:57:18;100846.7539;;;;
44734;BME280;30462;52.446;-1.930;2023-02-19T00:58:18;100845.7227;;;;
44734;BME280;30462;52.446;-1.930;2023-02-19T00:59:18;100849.9844;;;;
44734;BME280;30462;52.446;-1.930;2023-02-19T01:00:18;100848.0977;;;;
44734;BME280;30462;52.446;-1.930;2023-02-19T01:01:18;100849.4727;;;;
44734;BME280;30462;52.446;-1.930;2023-02-19T01:02:18;100850.9688;;;;
44734;BME280;30462;52.446;-1.930;2023-02-19T01:03:18;100850.6484;;;;
44734;BME280;30462;52.446;-1.930;2023-02-19T01:04:18;100849.7266;;;;
44734;BME280;30462;52.446;-1.930;2023-02-19T01:05:18;100847.5547;;;;
44734;BME280;30462;52.446;-1.930;2023-02-19T01:06:18;100847.4922;;;;
44734;BME280;30462;52.446;-1.930;2023-02-19T01:07:17;100846.168;;;;
44734;BME280;30462;52.446;-1.930;2023-02-19T01:08:18;100846.5938;;;;
44734;BME280;30462;52.446;-1.930;2023-02-19T01:09:18;100851.9141;;;;
44734;BME280;30462;52.446;-1.930;2023-02-19T01:10:18;100850.2578;;;;
44734;BME280;30462;52.446;-1.930;2023-02-19T01:11:18;100847.8789;;;;
44734;BME280;30462;52.446;-1.930;2023-02-19T01:12:18;100845.5898;;;;
44734;BME280;30462;52.446;-1.930;2023-02-19T01:13:18;100845.5859;;;;
44734;BME280;30462;52.446;-1.930;2023-02-19T01:14:17;100848.3555;;;;
44734;BME280;30462;52.446;-1.930;2023-02-19T01:15:18;100848.9492;;;;
44734;BME280;30462;52.446;-1.930;2023-02-19T01:16:19;100851.1445;;;;
44734;BME280;30462;52.446;-1.930;2023-02-19T01:17:18;100852.2461;;;;
44734;BME280;30462;52.446;-1.930;2023-02-19T01:18:18;100853.1445;;;;
44734;BME280;30462;52.446;-1.930;2023-02-19T01:19:17;100846.8789;;;;
44734;BME280;30462;52.446;-1.930;2023-02-19T01:20:18;100847.7344;;;;
44734;BME280;30462;52.446;-1.930;2023-02-19T01:21:19;100845.0508;;;;
44734;BME280;30462;52.446;-1.930;2023-02-19T01:22:18;100847.0273;;;;
44734;BME280;30462;52.446;-1.930;2023-02-19T01:23:18;100845.0156;;;;
44734;BME280;30462;52.446;-1.930;2023-02-19T01:24:18;100846.375;;;;
44734;BME280;30462;52.446;-1.930;2023-02-19T01:25:18;100844.457;;;;
44734;BME280;30462;52.446;-1.930;2023-02-19T01:26:18;100847.9648;;;;
44734;BME280;30462;52.446;-1.930;2023-02-19T01:27:18;100843.3945;;;;
44734;BME280;30462;52.446;-1.930;2023-02-19T01:28:18;100844.5938;;;;
44734;BME280;30462;52.446;-1.930;2023-02-19T01:29:17;100839.4609;;;;
44734;BME280;30462;52.446;-1.930;2023-02-19T01:30:18;100837.4922;;;;
44734;BME280;30462;52.446;-1.930;2023-02-19T01:31:19;100840.8672;;;;
44734;BME280;30462;52.446;-1.930;2023-02-19T01:32:18;100835.2656;;;;
44734;BME280;30462;52.446;-1.930;2023-02-19T01:33:18;100835.8047;;;;
44734;BME280;30462;52.446;-1.930;2023-02-19T01:34:17;100834.4961;;;;
44734;BME280;30462;52.446;-1.930;2023-02-19T01:35:18;100839.1914;;;;
44734;BME280;30462;52.446;-1.930;2023-02-19T01:36:18;100837.1602;;;;
44734;BME280;30462;52.446;-1.930;2023-02-19T01:37:18;100832.8672;;;;
44734;BME280;30462;52.446;-1.930;2023-02-19T01:38:18;100836.2539;;;;
44734;BME280;30462;52.446;-1.930;2023-02-19T01:39:18;100838.082;;;;
44734;BME280;30462;52.446;-1.930;2023-02-19T01:40:18;100839.4805;;;;
44734;BME280;30462;52.446;-1.930;2023-02-19T01:41:18;100845.5625;;;;
44734;BME280;30462;52.446;-1.930;2023-02-19T01:42:18;100850.0938;;;;
44734;BME280;30462;52.446;-1.930;2023-02-19T01:43:18;100851.3867;;;;
44734;BME280;30462;52.446;-1.930;2023-02-19T01:45:24;100861.707;;;;
44734;BME280;30462;52.446;-1.930;2023-02-19T01:46:18;100871.6836;;;;
44734;BME280;30462;52.446;-1.930;2023-02-19T01:47:18;100872.9961;;;;
44734;BME280;30462;52.446;-1.930;2023-02-19T01:48:18;100874.7305;;;;
44734;BME280;30462;52.446;-1.930;2023-02-19T01:49:19;100871.2031;;;;
44734;BME280;30462;52.446;-1.930;2023-02-19T01:50:18;100872.8398;;;;
44734;BME280;30462;52.446;-1.930;2023-02-19T01:51:18;100871.2891;;;;
44734;BME280;30462;52.446;-1.930;2023-02-19T01:52:19;100880.9961;;;;
44734;BME280;30462;52.446;-1.930;2023-02-19T01:53:19;100871.2031;;;;
44734;BME280;30462;52.446;-1.930;2023-02-19T01:54:18;100873.0234;;;;
44734;BME280;30462;52.446;-1.930;2023-02-19T01:55:17;100873.7617;;;;
44734;BME280;30462;52.446;-1.930;2023-02-19T01:56:18;100876.7305;;;;
44734;BME280;30462;52.446;-1.930;2023-02-19T01:57:19;100881.168;;;;
44734;BME280;30462;52.446;-1.930;2023-02-19T01:58:18;100881.9688;;;;
44734;BME280;30462;52.446;-1.930;2023-02-19T01:59:18;100881.832;;;;
44734;BME280;30462;52.446;-1.930;2023-02-19T02:00:17;100879.8945;;;;
44734;BME280;30462;52.446;-1.930;2023-02-19T02:01:18;100881.9297;;;;
44734;BME280;30462;52.446;-1.930;2023-02-19T02:02:18;100878.1836;;;;
44734;BME280;30462;52.446;-1.930;2023-02-19T02:03:17;100883.2969;;;;
44734;BME280;30462;52.446;-1.930;2023-02-19T02:04:18;100881.2539;;;;
44734;BME280;30462;52.446;-1.930;2023-02-19T02:05:22;100879.2461;;;;
44734;BME280;30462;52.446;-1.930;2023-02-19T02:06:19;100878.8281;;;;
44734;BME280;30462;52.446;-1.930;2023-02-19T02:07:17;100880.4688;;;;
44734;BME280;30462;52.446;-1.930;2023-02-19T02:08:17;100876.7188;;;;
44734;BME280;30462;52.446;-1.930;2023-02-19T02:09:19;100878.5859;;;;
44734;BME280;30462;52.446;-1.930;2023-02-19T02:10:18;100878.5859;;;;
44734;BME280;30462;52.446;-1.930;2023-02-19T02:11:18;100881.3516;;;;
44734;BME280;30462;52.446;-1.930;2023-02-19T02:12:18;100884.457;;;;
44734;BME280;30462;52.446;-1.930;2023-02-19T02:13:17;100892.9414;;;;
44734;BME280;30462;52.446;-1.930;2023-02-19T02:14:19;100893.1719;;;;
44734;BME280;30462;52.446;-1.930;2023-02-19T02:15:18;100895.3047;;;;
44734;BME280;30462;52.446;-1.930;2023-02-19T02:17:20;100901.9648;;;;
44734;BME280;30462;52.446;-1.930;2023-02-19T02:18:21;100903.9219;;;;
44734;BME280;30462;52.446;-1.930;2023-02-19T02:22:18;100912.2891;;;;
44734;BME280;30462;52.446;-1.930;2023-02-19T02:23:20;100910.6992;;;;
44734;BME280;30462;52.446;-1.930;2023-02-19T02:31:18;100906.6289;;;;
44734;BME280;30462;52.446;-1.930;2023-02-19T02:32:18;100908.2617;;;;
44734;BME280;30462;52.446;-1.930;2023-02-19T02:33:20;100908.3281;;;;
44734;BME280;30462;52.446;-1.930;2023-02-19T02:34:19;100909.5234;;;;
44734;BME280;30462;52.446;-1.930;2023-02-19T02:35:18;100909.7891;;;;
44734;BME280;30462;52.446;-1.930;2023-02-19T02:36:19;100906.6641;;;;
44734;BME280;30462;52.446;-1.930;2023-02-19T02:37:18;100911.7734;;;;
44734;BME280;30462;52.446;-1.930;2023-02-19T02:38:19;100913.7422;;;;
44734;BME280;30462;52.446;-1.930;2023-02-19T02:39:18;100912.793;;;;
44734;BME280;30462;52.446;-1.930;2023-02-19T02:40:18;100906.1641;;;;
44734;BME280;30462;52.446;-1.930;2023-02-19T02:41:18;100909.418;;;;
44734;BME280;30462;52.446;-1.930;2023-02-19T02:42:18;100911.4961;;;;
44734;BME280;30462;52.446;-1.930;2023-02-19T02:43:18;100915.7969;;;;
44734;BME280;30462;52.446;-1.930;2023-02-19T02:44:18;100915.8516;;;;
44734;BME280;30462;52.446;-1.930;2023-02-19T02:45:24;100919.5508;;;;
44734;BME280;30462;52.446;-1.930;2023-02-19T02:46:19;100917.8945;;;;
44734;BME280;30462;52.446;-1.930;2023-02-19T02:47:18;100923.0039;;;;
44734;BME280;30462;52.446;-1.930;2023-02-19T02:48:21;100924.8086;;;;
44734;BME280;30462;52.446;-1.930;2023-02-19T02:49:19;100929.8906;;;;
44734;BME280;30462;52.446;-1.930;2023-02-19T02:50:23;100931.0742;;;;
44734;BME280;30462;52.446;-1.930;2023-02-19T02:51:19;100935.1367;;;;
44734;BME280;30462;52.446;-1.930;2023-02-19T02:52:18;100931.8164;;;;
44734;BME280;30462;52.446;-1.930;2023-02-19T02:53:24;100929.1016;;;;
44734;BME280;30462;52.446;-1.930;2023-02-19T02:54:19;100925.8555;;;;
44734;BME280;30462;52.446;-1.930;2023-02-19T02:55:18;100922.2031;;;;
44734;BME280;30462;52.446;-1.930;2023-02-19T02:56:17;100923.6367;;;;
44734;BME280;30462;52.446;-1.930;2023-02-19T02:57:18;100925.8516;;;;
44734;BME280;30462;52.446;-1.930;2023-02-19T02:58:18;100928.6641;;;;
44734;BME280;30462;52.446;-1.930;2023-02-19T02:59:19;100928.8984;;;;
44734;BME280;30462;52.446;-1.930;2023-02-19T03:00:18;100927.4531;;;;
44734;BME280;30462;52.446;-1.930;2023-02-19T03:01:20;100924.0703;;;;
44734;BME280;30462;52.446;-1.930;2023-02-19T03:02:20;100932.9531;;;;
44734;BME280;30462;52.446;-1.930;2023-02-19T03:03:18;100934.3555;;;;
44734;BME280;30462;52.446;-1.930;2023-02-19T03:04:19;100932.4375;;;;
44734;BME280;30462;52.446;-1.930;2023-02-19T03:05:19;100935.3008;;;;
44734;BME280;30462;52.446;-1.930;2023-02-19T03:06:18;100936.9922;;;;
44734;BME280;30462;52.446;-1.930;2023-02-19T03:07:18;100939.1758;;;;
44734;BME280;30462;52.446;-1.930;2023-02-19T03:08:20;100939.1445;;;;
44734;BME280;30462;52.446;-1.930;2023-02-19T03:09:18;100938.7695;;;;
44734;BME280;30462;52.446;-1.930;2023-02-19T03:10:18;100945;;;;
44734;BME280;30462;52.446;-1.930;2023-02-19T03:11:18;100944.6758;;;;
44734;BME280;30462;52.446;-1.930;2023-02-19T03:12:18;100948.1914;;;;
44734;BME280;30462;52.446;-1.930;2023-02-19T03:13:21;100944.8711;;;;
44734;BME280;30462;52.446;-1.930;2023-02-19T03:14:21;100947.0117;;;;
44734;BME280;30462;52.446;-1.930;2023-02-19T03:15:18;100952.793;;;;
44734;BME280;30462;52.446;-1.930;2023-02-19T03:16:21;100955.043;;;;
44734;BME280;30462;52.446;-1.930;2023-02-19T03:17:21;100952.7461;;;;
44734;BME280;30462;52.446;-1.930;2023-02-19T03:18:18;100953.3203;;;;
44734;BME280;30462;52.446;-1.930;2023-02-19T03:19:18;100950.3242;;;;
44734;BME280;30462;52.446;-1.930;2023-02-19T03:20:18;100948.8984;;;;
44734;BME280;30462;52.446;-1.930;2023-02-19T03:21:18;100955.8516;;;;
44734;BME280;30462;52.446;-1.930;2023-02-19T03:22:21;100955.8047;;;;
44734;BME280;30462;52.446;-1.930;2023-02-19T03:23:18;100956.7578;;;;
44734;BME280;30462;52.446;-1.930;2023-02-19T03:24:18;100958.6367;;;;
44734;BME280;30462;52.446;-1.930;2023-02-19T03:25:19;100955.2422;;;;
44734;BME280;30462;52.446;-1.930;2023-02-19T03:26:18;100954.7305;;;;
44734;BME280;30462;52.446;-1.930;2023-02-19T03:27:18;100949.332;;;;
44734;BME280;30462;52.446;-1.930;2023-02-19T03:28:18;100956.8594;;;;
44734;BME280;30462;52.446;-1.930;2023-02-19T03:29:18;100954.418;;;;
44734;BME280;30462;52.446;-1.930;2023-02-19T03:30:18;100951.1953;;;;
44734;BME280;30462;52.446;-1.930;2023-02-19T03:31:18;100949.9063;;;;
44734;BME280;30462;52.446;-1.930;2023-02-19T03:32:19;100956.0625;;;;
44734;BME280;30462;52.446;-1.930;2023-02-19T03:33:19;100959.4141;;;;
44734;BME280;30462;52.446;-1.930;2023-02-19T03:34:19;100961.5977;;;;
44734;BME280;30462;52.446;-1.930;2023-02-19T03:35:18;100962.543;;;;
44734;BME280;30462;52.446;-1.930;2023-02-19T03:36:18;100963.7109;;;;
44734;BME280;30462;52.446;-1.930;2023-02-19T03:37:19;100966.6797;;;;
44734;BME280;30462;52.446;-1.930;2023-02-19T03:38:19;100965.8008;;;;
44734;BME280;30462;52.446;-1.930;2023-02-19T03:39:19;100973.8555;;;;
44734;BME280;30462;52.446;-1.930;2023-02-19T03:40:18;100971.3398;;;;
44734;BME280;30462;52.446;-1.930;2023-02-19T03:41:20;100972.2617;;;;
44734;BME280;30462;52.446;-1.930;2023-02-19T03:43:19;100971.9883;;;;
44734;BME280;30462;52.446;-1.930;2023-02-19T03:44:22;100972.5273;;;;
44734;BME280;30462;52.446;-1.930;2023-02-19T03:46:20;100972.9141;;;;
44734;BME280;30462;52.446;-1.930;2023-02-19T03:47:20;100974.1367;;;;
44734;BME280;30462;52.446;-1.930;2023-02-19T03:49:23;100988.5781;;;;
44734;BME280;30462;52.446;-1.930;2023-02-19T03:50:21;100993.2695;;;;
44734;BME280;30462;52.446;-1.930;2023-02-19T03:51:21;101002.3711;;;;
44734;BME280;30462;52.446;-1.930;2023-02-19T03:52:20;101004.2188;;;;
44734;BME280;30462;52.446;-1.930;2023-02-19T03:53:21;101007.6914;;;;
44734;BME280;30462;52.446;-1.930;2023-02-19T03:54:19;101010.5078;;;;
44734;BME280;30462;52.446;-1.930;2023-02-19T03:55:19;101017.1172;;;;
44734;BME280;30462;52.446;-1.930;2023-02-19T03:56:21;101020.5938;;;;
44734;BME280;30462;52.446;-1.930;2023-02-19T03:57:19;101016.6836;;;;
44734;BME280;30462;52.446;-1.930;2023-02-19T03:58:19;101024.8906;;;;
44734;BME280;30462;52.446;-1.930;2023-02-19T03:59:19;101023.7031;;;;
44734;BME280;30462;52.446;-1.930;2023-02-19T04:00:20;101020.2383;;;;
44734;BME280;30462;52.446;-1.930;2023-02-19T04:01:19;101022.8555;;;;
44734;BME280;30462;52.446;-1.930;2023-02-19T04:02:18;101023.3633;;;;
44734;BME280;30462;52.446;-1.930;2023-02-19T04:03:19;101019.7266;;;;
44734;BME280;30462;52.446;-1.930;2023-02-19T04:04:20;101019.4258;;;;
44734;BME280;30462;52.446;-1.930;2023-02-19T04:05:18;101028.8164;;;;
44734;BME280;30462;52.446;-1.930;2023-02-19T04:06:19;101028.7852;;;;
44734;BME280;30462;52.446;-1.930;2023-02-19T04:07:18;101027.293;;;;
44734;BME280;30462;52.446;-1.930;2023-02-19T04:08:18;101027.1289;;;;
44734;BME280;30462;52.446;-1.930;2023-02-19T04:09:18;101027.1797;;;;
44734;BME280;30462;52.446;-1.930;2023-02-19T04:10:18;101029.8398;;;;
44734;BME280;30462;52.446;-1.930;2023-02-19T04:11:18;101023.5;;;;
44734;BME280;30462;52.446;-1.930;2023-02-19T04:12:18;101020.2227;;;;
44734;BME280;30462;52.446;-1.930;2023-02-19T04:13:18;101016.0391;;;;
44734;BME280;30462;52.446;-1.930;2023-02-19T04:14:19;101018.543;;;;
44734;BME280;30462;52.446;-1.930;2023-02-19T04:15:19;101018.4023;;;;
44734;BME280;30462;52.446;-1.930;2023-02-19T04:16:19;101011.1758;;;;
44734;BME280;30462;52.446;-1.930;2023-02-19T04:17:21;101017.1133;;;;
44734;BME280;30462;52.446;-1.930;2023-02-19T04:18:19;101018.6328;;;;
44734;BME280;30462;52.446;-1.930;2023-02-19T04:19:18;101026.0664;;;;
44734;BME280;30462;52.446;-1.930;2023-02-19T04:20:18;101021.1211;;;;
44734;BME280;30462;52.446;-1.930;2023-02-19T04:21:18;101026.4258;;;;
44734;BME280;30462;52.446;-1.930;2023-02-19T04:22:18;101023.8594;;;;
44734;BME280;30462;52.446;-1.930;2023-02-19T04:23:18;101027.8828;;;;
44734;BME280;30462;52.446;-1.930;2023-02-19T04:24:19;101026.5898;;;;
44734;BME280;30462;52.446;-1.930;2023-02-19T04:25:18;101033.5625;;;;
44734;BME280;30462;52.446;-1.930;2023-02-19T04:26:18;101038.1289;;;;
44734;BME280;30462;52.446;-1.930;2023-02-19T04:27:18;101038.2148;;;;
44734;BME280;30462;52.446;-1.930;2023-02-19T04:28:18;101039.4102;;;;
44734;BME280;30462;52.446;-1.930;2023-02-19T04:29:18;101048.293;;;;
44734;BME280;30462;52.446;-1.930;2023-02-19T04:30:18;101044.9961;;;;
44734;BME280;30462;52.446;-1.930;2023-02-19T04:31:18;101043.7539;;;;
44734;BME280;30462;52.446;-1.930;2023-02-19T04:32:18;101042.4727;;;;
44734;BME280;30462;52.446;-1.930;2023-02-19T04:33:18;101047.2852;;;;
44734;BME280;30462;52.446;-1.930;2023-02-19T04:34:18;101050.9336;;;;
44734;BME280;30462;52.446;-1.930;2023-02-19T04:35:18;101046.4453;;;;
44734;BME280;30462;52.446;-1.930;2023-02-19T04:36:18;101053.4258;;;;
44734;BME280;30462;52.446;-1.930;2023-02-19T04:37:18;101060.6523;;;;
44734;BME280;30462;52.446;-1.930;2023-02-19T04:38:18;101062.4102;;;;
44734;BME280;30462;52.446;-1.930;2023-02-19T04:39:18;101070.9414;;;;
44734;BME280;30462;52.446;-1.930;2023-02-19T04:40:18;101072.6797;;;;
44734;BME280;30462;52.446;-1.930;2023-02-19T04:41:18;101078.3633;;;;
44734;BME280;30462;52.446;-1.930;2023-02-19T04:42:18;101088.7539;;;;
44734;BME280;30462;52.446;-1.930;2023-02-19T04:43:18;101087.8906;;;;
44734;BME280;30462;52.446;-1.930;2023-02-19T04:44:18;101093.7813;;;;
44734;BME280;30462;52.446;-1.930;2023-02-19T04:45:17;101096.1914;;;;
44734;BME280;30462;52.446;-1.930;2023-02-19T04:46:18;101098.9492;;;;
44734;BME280;30462;52.446;-1.930;2023-02-19T04:47:19;101101.9219;;;;
44734;BME280;30462;52.446;-1.930;2023-02-19T04:48:18;101109.7227;;;;
44734;BME280;30462;52.446;-1.930;2023-02-19T04:49:17;101115.1484;;;;
44734;BME280;30462;52.446;-1.930;2023-02-19T04:50:17;101112.0742;;;;
44734;BME280;30462;52.446;-1.930;2023-02-19T04:51:18;101110.3008;;;;
44734;BME280;30462;52.446;-1.930;2023-02-19T04:52:18;101115.2109;;;;
44734;BME280;30462;52.446;-1.930;2023-02-19T04:53:18;101112.5664;;;;
44734;BME280;30462;52.446;-1.930;2023-02-19T04:54:18;101112.1367;;;;
44734;BME280;30462;52.446;-1.930;2023-02-19T04:55:18;101113.1406;;;;
44734;BME280;30462;52.446;-1.930;2023-02-19T04:56:18;101114.0156;;;;
44734;BME280;30462;52.446;-1.930;2023-02-19T04:57:18;101124.0195;;;;
44734;BME280;30462;52.446;-1.930;2023-02-19T04:58:19;101117.2617;;;;
44734;BME280;30462;52.446;-1.930;2023-02-19T04:59:18;101111.0625;;;;
44734;BME280;30462;52.446;-1.930;2023-02-19T05:00:18;101118.4961;;;;
44734;BME280;30462;52.446;-1.930;2023-02-19T05:01:18;101117.7305;;;;
44734;BME280;30462;52.446;-1.930;2023-02-19T05:02:18;101122.2109;;;;
44734;BME280;30462;52.446;-1.930;2023-02-19T05:03:18;101124.6094;;;;
44734;BME280;30462;52.446;-1.930;2023-02-19T05:04:18;101118.9922;;;;
44734;BME280;30462;52.446;-1.930;2023-02-19T05:05:18;101118.418;;;;
44734;BME280;30462;52.446;-1.930;2023-02-19T05:06:18;101117.0039;;;;
44734;BME280;30462;52.446;-1.930;2023-02-19T05:07:18;101120.5039;;;;
44734;BME280;30462;52.446;-1.930;2023-02-19T05:08:18;101121.0547;;;;
44734;BME280;30462;52.446;-1.930;2023-02-19T05:09:18;101120.8008;;;;
44734;BME280;30462;52.446;-1.930;2023-02-19T05:10:18;101125.3086;;;;
44734;BME280;30462;52.446;-1.930;2023-02-19T05:11:17;101131.8008;;;;
44734;BME280;30462;52.446;-1.930;2023-02-19T05:12:18;101132.6016;;;;
44734;BME280;30462;52.446;-1.930;2023-02-19T05:13:18;101132.8359;;;;
44734;BME280;30462;52.446;-1.930;2023-02-19T05:14:18;101136.1836;;;;
44734;BME280;30462;52.446;-1.930;2023-02-19T05:15:18;101141.2734;;;;
44734;BME280;30462;52.446;-1.930;2023-02-19T05:16:18;101142.418;;;;
44734;BME280;30462;52.446;-1.930;2023-02-19T05:17:18;101142.6289;;;;
44734;BME280;30462;52.446;-1.930;2023-02-19T05:18:18;101148.9883;;;;
44734;BME280;30462;52.446;-1.930;2023-02-19T05:19:18;101151.5781;;;;
44734;BME280;30462;52.446;-1.930;2023-02-19T05:20:18;101154.9688;;;;
44734;BME280;30462;52.446;-1.930;2023-02-19T05:21:18;101164.5234;;;;
44734;BME280;30462;52.446;-1.930;2023-02-19T05:22:18;101165.7852;;;;
44734;BME280;30462;52.446;-1.930;2023-02-19T05:23:18;101167.6758;;;;
44734;BME280;30462;52.446;-1.930;2023-02-19T05:24:18;101164.875;;;;
44734;BME280;30462;52.446;-1.930;2023-02-19T05:25:18;101164.832;;;;
44734;BME280;30462;52.446;-1.930;2023-02-19T05:26:19;101169.6406;;;;
44734;BME280;30462;52.446;-1.930;2023-02-19T05:27:18;101169.4531;;;;
44734;BME280;30462;52.446;-1.930;2023-02-19T05:28:18;101172.6328;;;;
44734;BME280;30462;52.446;-1.930;2023-02-19T05:29:18;101170.6758;;;;
44734;BME280;30462;52.446;-1.930;2023-02-19T05:30:18;101179.1289;;;;
44734;BME280;30462;52.446;-1.930;2023-02-19T05:31:18;101180.4844;;;;
44734;BME280;30462;52.446;-1.930;2023-02-19T05:32:18;101180.5039;;;;
44734;BME280;30462;52.446;-1.930;2023-02-19T05:33:20;101179.9141;;;;
44734;BME280;30462;52.446;-1.930;2023-02-19T05:34:18;101180.8359;;;;
44734;BME280;30462;52.446;-1.930;2023-02-19T05:35:18;101181.2734;;;;
44734;BME280;30462;52.446;-1.930;2023-02-19T05:36:18;101181.75;;;;
44734;BME280;30462;52.446;-1.930;2023-02-19T05:37:18;101181.6523;;;;
44734;BME280;30462;52.446;-1.930;2023-02-19T05:38:18;101189.4492;;;;
44734;BME280;30462;52.446;-1.930;2023-02-19T05:39:18;101185.5703;;;;
44734;BME280;30462;52.446;-1.930;2023-02-19T05:40:18;101190.1016;;;;
44734;BME280;30462;52.446;-1.930;2023-02-19T05:41:19;101188.5313;;;;
44734;BME280;30462;52.446;-1.930;2023-02-19T05:42:18;101195.9258;;;;
44734;BME280;30462;52.446;-1.930;2023-02-19T05:43:18;101197.2539;;;;
44734;BME280;30462;52.446;-1.930;2023-02-19T05:44:18;101194.3789;;;;
44734;BME280;30462;52.446;-1.930;2023-02-19T05:45:18;101199.7383;;;;
44734;BME280;30462;52.446;-1.930;2023-02-19T05:46:19;101200.0039;;;;
44734;BME280;30462;52.446;-1.930;2023-02-19T05:47:18;101202.2891;;;;
44734;BME280;30462;52.446;-1.930;2023-02-19T05:48:18;101202.4258;;;;
44734;BME280;30462;52.446;-1.930;2023-02-19T05:49:18;101197.9727;;;;
44734;BME280;30462;52.446;-1.930;2023-02-19T05:50:18;101206.1133;;;;
44734;BME280;30462;52.446;-1.930;2023-02-19T05:51:19;101204.9102;;;;
44734;BME280;30462;52.446;-1.930;2023-02-19T05:52:17;101196.043;;;;
44734;BME280;30462;52.446;-1.930;2023-02-19T05:53:18;101199.7539;;;;
44734;BME280;30462;52.446;-1.930;2023-02-19T05:54:17;101196.1367;;;;
44734;BME280;30462;52.446;-1.930;2023-02-19T05:55:18;101196.1875;;;;
44734;BME280;30462;52.446;-1.930;2023-02-19T05:57:18;101194.3711;;;;
44734;BME280;30462;52.446;-1.930;2023-02-19T05:58:18;101192.2852;;;;
44734;BME280;30462;52.446;-1.930;2023-02-19T05:59:18;101185.0742;;;;
44734;BME280;30462;52.446;-1.930;2023-02-19T06:00:18;101181.3359;;;;
44734;BME280;30462;52.446;-1.930;2023-02-19T06:01:19;101183.9102;;;;